Airfield :
LOGIN :

Register | Disclaimer

   EN    FR    IT 

 










Legend :    VFR   Marginal VFR   IFR   Intensive IFR   Very Intensive IFR
Visi :
Ceiling :
>= 8 km
>= 3000ft
5 to 8 km
1000 to 3000 ft
1500m to 5 km
500 to 1000 ft
800 to 1500m
200 to 500 ft
< 800m
< 200 ft
Symbols :   Thunderstorms  Fog  Heavy snow  Heavy precipitations  Wind > 20 kt
SIGMETs :     Misc.  Thunderstorms  Icing  Turbulence  Mountain Waves  Volcanic Ashes







- Airport Elevation : 1470 ft


LSMD - Dubendorf Military

CURRENT METAR :
  • 131920Z AUTO 07009KT 030V090 9999NDV -SHSN FEW040 BKN054 OVC062 00/M04 Q1012 RMK

EXPIRED METARs :
  • 131850Z AUTO 07004KT 010V120 9999NDV BKN056 OVC069 01/M04 Q1012 RMK
  • 131820Z AUTO 06005KT 020V090 9999NDV -SHRASN OVC070 00/M03 Q1012 RMK
  • 131750Z AUTO 06006KT 030V110 9999NDV -SHSN SCT035 BKN042 OVC049 01/M03 Q1012 RMK
  • 131720Z AUTO 05003KT 350V080 9999NDV FEW038 BKN047 OVC068 01/M04 Q1012 RMK
  • 131650Z AUTO 07003KT 030V100 9999NDV -SHRA FEW057 OVC067 01/M03 Q1012 RMK

Expired Forecast.
No reported NOTAMs for that airfield.



MET'MAP, your aeronautical weather chart ! - Copyright ORBIFLY December 2007 - Disclaimer

ORBIFLY MET'MAP TEAM :

Programming & Development : Alexandra Zaïnal
Concept & Development : Baudouin d'Aumeries
Co-Development & Prog : Marc-Olivier Méhu
Technical & hardware support : Manuel Goepfert

Contact : metmap@orbifly.com




SOURCES & CREDITS :

   NOAA